Redwood City, CA (94065)

10:47 AM PST on December 25, 2014 (GMT -0800)
Neighborhood 4 | Change Station
CLOSE
Current Station
Personal Weather Station
Location: Foster City, CA
Elevation: 7 ft
Nearby Weather Stations
Active Advisory: Special Statement

Elev 7 ft 37.55 °N, 122.26 °W | Updated 3 seconds ago

Clear
Clear
52.0 °F
Feels Like 52.0 °F
N
5.0
Wind Variable Wind from NW
Gusts 5.0 mph

Today
High -- | Low -- °F
--% Chance of Precip.
Yesterday
High -- | Low -- °F
Precip. -- in
7:21 AM 4:56 PM
Waxing Crescent, 18% visible
Pressure 30.17 in
Visibility 10.0 miles
Clouds Clear
Dew Point 42 °F
Humidity 69%
Rainfall 0.00 in
Snow Depth Not available.
UV 0.0 out of 12
Pollen 4.90 out of 12
Air Quality Not available.
Flu Activity Not available.
METAR KSQL 251748Z 33008KT 10SM SKC 11/02 A3017

More Conditions Fewer Conditions

Pressure 30.17 in
Visibility 10.0 miles
Clouds Clear
Dew Point 42 °F
Humidity 69%
Rainfall 0.00 in
Snow Depth Not available.
UV 0.0 out of 12
Pollen 4.90 out of 12
Air Quality Not available.
Flu Activity Not available.
METAR KSQL 251748Z 33008KT 10SM SKC 11/02 A3017

More Conditions Fewer Conditions

10-Day Weather Forecast

Almanac

Astronomy

Dec. 25, 2014 Rise Set
Actual Time
Civil Twilight
Nautical Twilight
Astronomical Twilight
Moon
Length of Visible Light
Length of Day
Tomorrow will be .
, % of the Moon is Illuminated

Today's Extremes

State Highs State Lows

Community

WunderPhotos

Upload Photos

1,780,358 photos uploaded!

WunderBlogs® & News

Nearby

Air Quality

  Air Quality AQ Index Pollutant
Not available.

Snow Depth

Station Depth Elevation

Earthquake Activity

City Distance Mag. Time & Date
Minimum magnitude displayed is 2.5.

Coastal Water Temperatures

Place Temperature

Nearby Weather Stations